Oriana — ZCDU9 — position and weather

sailwx.info

Track history (hours):
 
Tides and Currents Weather Stations Pressure Air Temp Water Temp Dewpoint Dewpoint Depression Visibility Wind Speed Wind Dir Waves Ship Positions

Oriana (Bermuda)

Last reported at 2019-Jun-16 15:01 UTC. Time now 2019-Jun-16 15:11 UTC.
Position N 51°17' W 010°19'.

Length 261 m; beam 32.2 m; draft 8.2 m.

Type: Ship. MMSI: 310529000.

Date/timePositionNaut miles runAvg speedWind from/ knotsBaromVisibWave heightAir tempDewpointWater temp
2019-Jun-16 15:01N 51°17' W 010°19'917.5
2019-Jun-16 14:28N 51°11' W 010°07'1017.3
2019-Jun-16 13:53N 51°07' W 009°53'1217.5
2019-Jun-16 13:14N 51°04' W 009°35'417.7
2019-Jun-16 13:00N 51°03' W 009°29'1118.4
2019-Jun-16 12:24N 51°00' W 009°12'818.7
2019-Jun-16 12:00N 50°59' W 009°00'19217.1
2019-Jun-16 00:44N 49°56' W 004°14'520.9
2019-Jun-16 00:29N 49°56' W 004°06'1021.5
2019-Jun-16 00:00N 49°57' W 003°50'1122.0
2019-Jun-15 23:30N 49°59' W 003°33'1122.0
2019-Jun-15 23:00N 50°04' W 003°18'1121.8
2019-Jun-15 22:30N 50°09' W 003°04'1021.0
2019-Jun-15 22:00N 50°13' W 002°48'1020.9
2019-Jun-15 21:30N 50°15' W 002°32'1020.0
2019-Jun-15 21:01N 50°17' W 002°17'1019.1
2019-Jun-15 20:30N 50°19' W 002°02'918.4
2019-Jun-15 20:01N 50°21' W 001°48'918.2
2019-Jun-15 19:30N 50°24' W 001°35'917.8
2019-Jun-15 19:01N 50°26' W 001°21'917.4
2019-Jun-15 18:30N 50°30' W 001°09'816.4
2019-Jun-15 18:00N 50°35' W 000°59'815.7
2019-Jun-15 17:30N 50°43' W 000°59'816.2
2019-Jun-15 17:00N 50°46' W 001°11'611.2
2019-Jun-15 16:30N 50°49' W 001°18'5 8.5
2019-Jun-15 15:54N 50°53' W 001°24'0 0.0
2019-Jun-15 13:30N 50°53' W 001°24'0 0.0
2019-Jun-15 12:42N 50°53' W 001°24'8 5.4
2019-Jun-15 11:16N 50°47' W 001°17'823.4
2019-Jun-15 10:56N 50°53' W 001°24'0 0.0
2019-Jun-15 10:28N 50°53' W 001°24'0 0.0
2019-Jun-15 09:34N 50°53' W 001°24'0 0.0
2019-Jun-15 07:02N 50°53' W 001°24'225313.9
2019-Jun-15 06:19N 48°19' W 005°36'225385.4
2019-Jun-15 05:44N 50°53' W 001°24'0 0.2
2019-Jun-15 05:29N 50°53' W 001°24'2 4.0
2019-Jun-15 05:00N 50°52' W 001°22'4 8.8
2019-Jun-15 04:30N 50°48' W 001°18'611.2
2019-Jun-15 04:01N 50°46' W 001°10'816.3
2019-Jun-15 03:30N 50°42' W 000°58'510.4
2019-Jun-15 03:00N 50°37' W 000°59'815.9
2019-Jun-15 02:31N 50°30' W 001°03'815.5
2019-Jun-15 02:01N 50°25' W 001°13'1714.3
2019-Jun-15 00:47N 50°19' W 001°39'614.3
2019-Jun-15 00:21N 50°18' W 001°48'713.9
2019-Jun-14 23:49N 50°15' W 001°59'1213.9
2019-Jun-14 22:58N 50°06' W 002°11'810.6
2019-Jun-14 22:09N 49°58' W 002°16'210.8
2019-Jun-14 22:00N 49°58' W 002°19'611.3
2019-Jun-14 21:30N 49°56' W 002°27'611.9
2019-Jun-14 21:00N 49°54' W 002°36'612.2
2019-Jun-14 20:30N 49°53' W 002°45'612.5
2019-Jun-14 20:00N 49°50' W 002°54'612.7
2019-Jun-14 19:30N 49°47' W 003°02'612.8
2019-Jun-14 19:00N 49°43' W 003°10'612.9
2019-Jun-14 18:30N 49°39' W 003°18'612.5
2019-Jun-14 18:00N 49°35' W 003°25'612.5
2019-Jun-14 17:30N 49°31' W 003°33'712.7
2019-Jun-14 16:57N 49°26' W 003°41'4912.9
2019-Jun-14 13:08N 48°56' W 004°41'213.2
2019-Jun-14 12:59N 48°55' W 004°43'813.1
2019-Jun-14 12:22N 48°50' W 004°53'514.7
2019-Jun-14 12:00N 48°47' W 004°60'917.4
2019-Jun-14 11:30N 48°42' W 005°10'917.8
2019-Jun-14 11:00N 48°35' W 005°19'815.7
2019-Jun-14 10:30N 48°29' W 005°27'1315.4
2019-Jun-14 09:38N 48°18' W 005°37'1615.0
2019-Jun-14 08:33N 48°03' W 005°50'11915.8
2019-Jun-14 01:00N 46°18' W 007°12'16014.5 270 / 271012.610.8 14.711.115.0
2019-Jun-13 14:00N 44°00' W 009°06'28116.0 290 / 51013.810.8 15.0 8.016.0
2019-Jun-12 20:29N 39°21' W 009°50'816.9
2019-Jun-12 20:00N 39°13' W 009°49'816.4
2019-Jun-12 19:30N 39°05' W 009°47'816.5
2019-Jun-12 19:00N 38°57' W 009°45'816.2
2019-Jun-12 18:30N 38°49' W 009°43'816.0
2019-Jun-12 18:00N 38°41' W 009°42'713.9
2019-Jun-12 17:30N 38°37' W 009°35'815.6
2019-Jun-12 17:01N 38°37' W 009°25'816.4
2019-Jun-12 16:31N 38°41' W 009°16'713.4
2019-Jun-12 16:00N 38°42' W 009°08'0 0.4
2019-Jun-12 15:30N 38°43' W 009°07'0 0.0
2019-Jun-12 14:58N 38°43' W 009°07'0 0.0
2019-Jun-12 14:29N 38°43' W 009°07'0 0.0
2019-Jun-12 14:00N 38°43' W 009°07'0 0.0
2019-Jun-12 13:29N 38°43' W 009°07'0 0.0
2019-Jun-12 12:58N 38°43' W 009°07'0 0.0
2019-Jun-12 12:30N 38°43' W 009°07'0 0.0
2019-Jun-12 11:59N 38°43' W 009°07'0 0.0
2019-Jun-12 11:28N 38°43' W 009°07'0 0.0
2019-Jun-12 10:58N 38°43' W 009°07'0 0.0
2019-Jun-12 10:30N 38°43' W 009°07'0 0.0
2019-Jun-12 10:00N 38°43' W 009°07'0 0.0
2019-Jun-12 09:30N 38°43' W 009°07'0 0.0
2019-Jun-12 09:01N 38°43' W 009°07'0 0.0
2019-Jun-12 08:29N 38°43' W 009°07'0 0.0
2019-Jun-12 07:58N 38°43' W 009°07'0 0.0
2019-Jun-12 07:28N 38°43' W 009°07'0 0.0
2019-Jun-12 07:00N 38°43' W 009°07'0 0.1
2019-Jun-12 06:30N 38°43' W 009°07'1 2.5
2019-Jun-12 06:01N 38°42' W 009°09'713.3
2019-Jun-12 05:30N 38°41' W 009°17'714.4
2019-Jun-12 05:00N 38°36' W 009°24'815.5
2019-Jun-12 04:30N 38°29' W 009°28'918.2
2019-Jun-12 04:00N 38°21' W 009°32'816.9
2019-Jun-12 03:30N 38°13' W 009°35'815.8
2019-Jun-12 03:00N 38°05' W 009°39'1715.5
2019-Jun-12 01:54N 37°49' W 009°46'8415.1
2019-Jun-11 20:19N 36°29' W 010°19'513.8
2019-Jun-11 19:57N 36°24' W 010°21'814.1
2019-Jun-11 19:24N 36°17' W 010°24'42117.3
2019-Jun-10 19:07N 29°38' W 013°03'318.3
2019-Jun-10 18:57N 29°35' W 013°04'918.1
2019-Jun-10 18:28N 29°27' W 013°06'918.3
2019-Jun-10 18:00N 29°18' W 013°06'422.3 360 / 291021.710.8 20.014.920.0
2019-Jun-10 17:48N 29°15' W 013°09'618.4
2019-Jun-10 17:30N 29°09' W 013°11'918.2
2019-Jun-10 17:00N 29°02' W 013°17'917.1
2019-Jun-10 16:28N 28°57' W 013°26'511.4
2019-Jun-10 15:59N 28°58' W 013°32'0 0.5
2019-Jun-10 15:10N 28°58' W 013°32'0 0.0
2019-Jun-10 14:54N 28°58' W 013°32'0 0.0
2019-Jun-10 14:15N 28°58' W 013°32'0 0.0
2019-Jun-10 13:48N 28°58' W 013°32'0 0.0
2019-Jun-10 13:15N 28°58' W 013°32'0 0.0
2019-Jun-10 12:55N 28°58' W 013°32'66 5.4
2019-Jun-10 00:30N 28°47' W 014°47'510.4
2019-Jun-10 00:00N 28°42' W 014°47'510.6
2019-Jun-09 23:30N 28°37' W 014°49'510.7
2019-Jun-09 23:00N 28°31' W 014°49'510.5
2019-Jun-09 22:30N 28°26' W 014°49'510.2
2019-Jun-09 22:00N 28°21' W 014°49'510.1
2019-Jun-09 21:30N 28°16' W 014°51'510.3
2019-Jun-09 21:00N 28°11' W 014°53'510.6
2019-Jun-09 20:30N 28°06' W 014°55'5 9.3
2019-Jun-09 20:00N 28°04' W 014°60'611.4
2019-Jun-09 19:30N 28°05' W 015°06'611.5
2019-Jun-09 19:00N 28°06' W 015°13'611.5
2019-Jun-09 18:31N 28°06' W 015°19'611.1
2019-Jun-09 18:00N 28°08' W 015°25'1 1.7
2019-Jun-09 17:26N 28°08' W 015°26'0 0.0
2019-Jun-09 16:55N 28°08' W 015°26'0 0.0
2019-Jun-09 16:22N 28°08' W 015°26'0 0.0
2019-Jun-09 16:00N 28°08' W 015°26'0 0.0
2019-Jun-09 15:29N 28°08' W 015°26'0 0.0
2019-Jun-09 14:59N 28°08' W 015°26'0 0.0
2019-Jun-09 14:23N 28°08' W 015°26'0 0.0
2019-Jun-09 13:50N 28°08' W 015°26'0 0.0
2019-Jun-09 13:20N 28°08' W 015°26'0 0.0
2019-Jun-09 12:56N 28°08' W 015°26'0 0.0
2019-Jun-09 12:30N 28°08' W 015°26'0 0.0
2019-Jun-09 12:00N 28°08' W 015°26'0 0.0
2019-Jun-09 11:30N 28°08' W 015°26'0 0.0
2019-Jun-09 11:01N 28°08' W 015°26'0 0.0
2019-Jun-09 10:30N 28°08' W 015°26'0 0.0
2019-Jun-09 10:00N 28°08' W 015°26'0 0.0
2019-Jun-09 09:31N 28°08' W 015°26'0 0.0
2019-Jun-09 08:56N 28°08' W 015°26'0 0.0
2019-Jun-09 08:28N 28°08' W 015°26'0 0.0
2019-Jun-09 07:58N 28°08' W 015°26'0 0.0
2019-Jun-09 07:28N 28°08' W 015°26'0 1.0
2019-Jun-09 07:00N 28°08' W 015°25'4 7.5
2019-Jun-09 06:30N 28°08' W 015°21'815.9
2019-Jun-09 06:00N 28°16' W 015°18'815.8
2019-Jun-09 05:30N 28°24' W 015°16'510.9
2019-Jun-09 05:00N 28°27' W 015°21'1212.2
2019-Jun-09 04:00N 28°34' W 015°32'612.4
2019-Jun-09 03:30N 28°37' W 015°38'612.5
2019-Jun-09 03:00N 28°40' W 015°44'612.3
2019-Jun-09 02:30N 28°44' W 015°50'612.2
2019-Jun-09 02:00N 28°47' W 015°56'612.1
2019-Jun-09 01:29N 28°50' W 016°02'  
Track history (hours):
 
Tides and Currents Weather Stations Pressure Air Temp Water Temp Dewpoint Dewpoint Depression Visibility Wind Speed Wind Dir Waves Ship Positions

Oriana (Bermuda)

Last reported at 2019-Jun-16 15:01 UTC. Time now 2019-Jun-16 15:11 UTC.
Position N 51°17' W 010°19'.

Length 261 m; beam 32.2 m; draft 8.2 m.

Type: Ship. MMSI: 310529000.

Date/timePositionNaut miles runAvg speedWind from/ knotsBaromVisibWave heightAir tempDewpointWater temp
2019-Jun-16 15:01N 51°17' W 010°19'917.5
2019-Jun-16 14:28N 51°11' W 010°07'1017.3
2019-Jun-16 13:53N 51°07' W 009°53'1217.5
2019-Jun-16 13:14N 51°04' W 009°35'417.7
2019-Jun-16 13:00N 51°03' W 009°29'1118.4
2019-Jun-16 12:24N 51°00' W 009°12'818.7
2019-Jun-16 12:00N 50°59' W 009°00'19217.1
2019-Jun-16 00:44N 49°56' W 004°14'520.9
2019-Jun-16 00:29N 49°56' W 004°06'1021.5
2019-Jun-16 00:00N 49°57' W 003°50'1122.0
2019-Jun-15 23:30N 49°59' W 003°33'1122.0
2019-Jun-15 23:00N 50°04' W 003°18'1121.8
2019-Jun-15 22:30N 50°09' W 003°04'1021.0
2019-Jun-15 22:00N 50°13' W 002°48'1020.9
2019-Jun-15 21:30N 50°15' W 002°32'1020.0
2019-Jun-15 21:01N 50°17' W 002°17'1019.1
2019-Jun-15 20:30N 50°19' W 002°02'918.4
2019-Jun-15 20:01N 50°21' W 001°48'918.2
2019-Jun-15 19:30N 50°24' W 001°35'917.8
2019-Jun-15 19:01N 50°26' W 001°21'917.4
2019-Jun-15 18:30N 50°30' W 001°09'816.4
2019-Jun-15 18:00N 50°35' W 000°59'815.7
2019-Jun-15 17:30N 50°43' W 000°59'816.2
2019-Jun-15 17:00N 50°46' W 001°11'611.2
2019-Jun-15 16:30N 50°49' W 001°18'5 8.5
2019-Jun-15 15:54N 50°53' W 001°24'0 0.0
2019-Jun-15 13:30N 50°53' W 001°24'0 0.0
2019-Jun-15 12:42N 50°53' W 001°24'8 5.4
2019-Jun-15 11:16N 50°47' W 001°17'823.4
2019-Jun-15 10:56N 50°53' W 001°24'0 0.0
2019-Jun-15 10:28N 50°53' W 001°24'0 0.0
2019-Jun-15 09:34N 50°53' W 001°24'0 0.0
2019-Jun-15 07:02N 50°53' W 001°24'225313.9
2019-Jun-15 06:19N 48°19' W 005°36'225385.4
2019-Jun-15 05:44N 50°53' W 001°24'0 0.2
2019-Jun-15 05:29N 50°53' W 001°24'2 4.0
2019-Jun-15 05:00N 50°52' W 001°22'4 8.8
2019-Jun-15 04:30N 50°48' W 001°18'611.2
2019-Jun-15 04:01N 50°46' W 001°10'816.3
2019-Jun-15 03:30N 50°42' W 000°58'510.4
2019-Jun-15 03:00N 50°37' W 000°59'815.9
2019-Jun-15 02:31N 50°30' W 001°03'815.5
2019-Jun-15 02:01N 50°25' W 001°13'1714.3
2019-Jun-15 00:47N 50°19' W 001°39'614.3
2019-Jun-15 00:21N 50°18' W 001°48'713.9
2019-Jun-14 23:49N 50°15' W 001°59'1213.9
2019-Jun-14 22:58N 50°06' W 002°11'810.6
2019-Jun-14 22:09N 49°58' W 002°16'210.8
2019-Jun-14 22:00N 49°58' W 002°19'611.3
2019-Jun-14 21:30N 49°56' W 002°27'611.9
2019-Jun-14 21:00N 49°54' W 002°36'612.2
2019-Jun-14 20:30N 49°53' W 002°45'612.5
2019-Jun-14 20:00N 49°50' W 002°54'612.7
2019-Jun-14 19:30N 49°47' W 003°02'612.8
2019-Jun-14 19:00N 49°43' W 003°10'612.9
2019-Jun-14 18:30N 49°39' W 003°18'612.5
2019-Jun-14 18:00N 49°35' W 003°25'612.5
2019-Jun-14 17:30N 49°31' W 003°33'712.7
2019-Jun-14 16:57N 49°26' W 003°41'4912.9
2019-Jun-14 13:08N 48°56' W 004°41'213.2
2019-Jun-14 12:59N 48°55' W 004°43'813.1
2019-Jun-14 12:22N 48°50' W 004°53'514.7
2019-Jun-14 12:00N 48°47' W 004°60'917.4
2019-Jun-14 11:30N 48°42' W 005°10'917.8
2019-Jun-14 11:00N 48°35' W 005°19'815.7
2019-Jun-14 10:30N 48°29' W 005°27'1315.4
2019-Jun-14 09:38N 48°18' W 005°37'1615.0
2019-Jun-14 08:33N 48°03' W 005°50'11915.8
2019-Jun-14 01:00N 46°18' W 007°12'16014.5 270 / 271012.610.8 14.711.115.0
2019-Jun-13 14:00N 44°00' W 009°06'28116.0 290 / 51013.810.8 15.0 8.016.0
2019-Jun-12 20:29N 39°21' W 009°50'816.9
2019-Jun-12 20:00N 39°13' W 009°49'816.4
2019-Jun-12 19:30N 39°05' W 009°47'816.5
2019-Jun-12 19:00N 38°57' W 009°45'816.2
2019-Jun-12 18:30N 38°49' W 009°43'816.0
2019-Jun-12 18:00N 38°41' W 009°42'713.9
2019-Jun-12 17:30N 38°37' W 009°35'815.6
2019-Jun-12 17:01N 38°37' W 009°25'816.4
2019-Jun-12 16:31N 38°41' W 009°16'713.4
2019-Jun-12 16:00N 38°42' W 009°08'0 0.4
2019-Jun-12 15:30N 38°43' W 009°07'0 0.0
2019-Jun-12 14:58N 38°43' W 009°07'0 0.0
2019-Jun-12 14:29N 38°43' W 009°07'0 0.0
2019-Jun-12 14:00N 38°43' W 009°07'0 0.0
2019-Jun-12 13:29N 38°43' W 009°07'0 0.0
2019-Jun-12 12:58N 38°43' W 009°07'0 0.0
2019-Jun-12 12:30N 38°43' W 009°07'0 0.0
2019-Jun-12 11:59N 38°43' W 009°07'0 0.0
2019-Jun-12 11:28N 38°43' W 009°07'0 0.0
2019-Jun-12 10:58N 38°43' W 009°07'0 0.0
2019-Jun-12 10:30N 38°43' W 009°07'0 0.0
2019-Jun-12 10:00N 38°43' W 009°07'0 0.0
2019-Jun-12 09:30N 38°43' W 009°07'0 0.0
2019-Jun-12 09:01N 38°43' W 009°07'0 0.0
2019-Jun-12 08:29N 38°43' W 009°07'0 0.0
2019-Jun-12 07:58N 38°43' W 009°07'0 0.0
2019-Jun-12 07:28N 38°43' W 009°07'0 0.0
2019-Jun-12 07:00N 38°43' W 009°07'0 0.1
2019-Jun-12 06:30N 38°43' W 009°07'1 2.5
2019-Jun-12 06:01N 38°42' W 009°09'713.3
2019-Jun-12 05:30N 38°41' W 009°17'714.4
2019-Jun-12 05:00N 38°36' W 009°24'815.5
2019-Jun-12 04:30N 38°29' W 009°28'918.2
2019-Jun-12 04:00N 38°21' W 009°32'816.9
2019-Jun-12 03:30N 38°13' W 009°35'815.8
2019-Jun-12 03:00N 38°05' W 009°39'1715.5
2019-Jun-12 01:54N 37°49' W 009°46'8415.1
2019-Jun-11 20:19N 36°29' W 010°19'513.8
2019-Jun-11 19:57N 36°24' W 010°21'814.1
2019-Jun-11 19:24N 36°17' W 010°24'42117.3
2019-Jun-10 19:07N 29°38' W 013°03'318.3
2019-Jun-10 18:57N 29°35' W 013°04'918.1
2019-Jun-10 18:28N 29°27' W 013°06'918.3
2019-Jun-10 18:00N 29°18' W 013°06'422.3 360 / 291021.710.8 20.014.920.0
2019-Jun-10 17:48N 29°15' W 013°09'618.4
2019-Jun-10 17:30N 29°09' W 013°11'918.2
2019-Jun-10 17:00N 29°02' W 013°17'917.1
2019-Jun-10 16:28N 28°57' W 013°26'511.4
2019-Jun-10 15:59N 28°58' W 013°32'0 0.5
2019-Jun-10 15:10N 28°58' W 013°32'0 0.0
2019-Jun-10 14:54N 28°58' W 013°32'0 0.0
2019-Jun-10 14:15N 28°58' W 013°32'0 0.0
2019-Jun-10 13:48N 28°58' W 013°32'0 0.0
2019-Jun-10 13:15N 28°58' W 013°32'0 0.0
2019-Jun-10 12:55N 28°58' W 013°32'66 5.4
2019-Jun-10 00:30N 28°47' W 014°47'510.4
2019-Jun-10 00:00N 28°42' W 014°47'510.6
2019-Jun-09 23:30N 28°37' W 014°49'510.7
2019-Jun-09 23:00N 28°31' W 014°49'510.5
2019-Jun-09 22:30N 28°26' W 014°49'510.2
2019-Jun-09 22:00N 28°21' W 014°49'510.1
2019-Jun-09 21:30N 28°16' W 014°51'510.3
2019-Jun-09 21:00N 28°11' W 014°53'510.6
2019-Jun-09 20:30N 28°06' W 014°55'5 9.3
2019-Jun-09 20:00N 28°04' W 014°60'611.4
2019-Jun-09 19:30N 28°05' W 015°06'611.5
2019-Jun-09 19:00N 28°06' W 015°13'611.5
2019-Jun-09 18:31N 28°06' W 015°19'611.1
2019-Jun-09 18:00N 28°08' W 015°25'1 1.7
2019-Jun-09 17:26N 28°08' W 015°26'0 0.0
2019-Jun-09 16:55N 28°08' W 015°26'0 0.0
2019-Jun-09 16:22N 28°08' W 015°26'0 0.0
2019-Jun-09 16:00N 28°08' W 015°26'0 0.0
2019-Jun-09 15:29N 28°08' W 015°26'0 0.0
2019-Jun-09 14:59N 28°08' W 015°26'0 0.0
2019-Jun-09 14:23N 28°08' W 015°26'0 0.0
2019-Jun-09 13:50N 28°08' W 015°26'0 0.0
2019-Jun-09 13:20N 28°08' W 015°26'0 0.0
2019-Jun-09 12:56N 28°08' W 015°26'0 0.0
2019-Jun-09 12:30N 28°08' W 015°26'0 0.0
2019-Jun-09 12:00N 28°08' W 015°26'0 0.0
2019-Jun-09 11:30N 28°08' W 015°26'0 0.0
2019-Jun-09 11:01N 28°08' W 015°26'0 0.0
2019-Jun-09 10:30N 28°08' W 015°26'0 0.0
2019-Jun-09 10:00N 28°08' W 015°26'0 0.0
2019-Jun-09 09:31N 28°08' W 015°26'0 0.0
2019-Jun-09 08:56N 28°08' W 015°26'0 0.0
2019-Jun-09 08:28N 28°08' W 015°26'0 0.0
2019-Jun-09 07:58N 28°08' W 015°26'0 0.0
2019-Jun-09 07:28N 28°08' W 015°26'0 1.0
2019-Jun-09 07:00N 28°08' W 015°25'4 7.5
2019-Jun-09 06:30N 28°08' W 015°21'815.9
2019-Jun-09 06:00N 28°16' W 015°18'815.8
2019-Jun-09 05:30N 28°24' W 015°16'510.9
2019-Jun-09 05:00N 28°27' W 015°21'1212.2
2019-Jun-09 04:00N 28°34' W 015°32'612.4
2019-Jun-09 03:30N 28°37' W 015°38'612.5
2019-Jun-09 03:00N 28°40' W 015°44'612.3
2019-Jun-09 02:30N 28°44' W 015°50'612.2
2019-Jun-09 02:00N 28°47' W 015°56'612.1
2019-Jun-09 01:29N 28°50' W 016°02'  

Dump ship's entire track history